createdAt,value
2016-07-12T14:02:43.606Z,36.32
2016-07-12T14:03:40.806Z,36.39
2016-07-12T14:04:40.076Z,36.38
2016-07-12T14:05:40.058Z,36.31
2016-07-12T14:06:40.058Z,36.26
2016-07-12T14:07:40.405Z,36.32
2016-07-12T14:08:40.084Z,36.33
2016-07-12T14:09:40.136Z,36.22
2016-07-12T14:10:40.480Z,36.33
2016-07-12T14:11:42.245Z,36.31
2016-07-12T14:12:40.354Z,36.26
2016-07-12T14:13:40.175Z,36.36
2016-07-12T14:14:42.247Z,36.33
2016-07-12T14:15:40.183Z,36.41
2016-07-12T14:16:40.601Z,36.47
2016-07-12T14:17:40.567Z,36.44
2016-07-12T14:18:40.153Z,36.51
2016-07-12T14:19:40.193Z,36.36
2016-07-12T14:20:40.104Z,36.38
2016-07-12T14:21:42.187Z,36.44
2016-07-12T14:22:40.431Z,36.47
2016-07-12T14:23:42.565Z,36.55
2016-07-12T14:24:40.247Z,36.59
2016-07-12T14:25:43.293Z,36.57
2016-07-12T14:26:41.731Z,36.63
2016-07-12T14:27:40.274Z,36.6
2016-07-12T14:28:41.368Z,36.65
2016-07-12T14:29:44.664Z,36.65
2016-07-12T14:30:40.558Z,36.69
2016-07-12T14:31:40.807Z,36.75
2016-07-12T14:32:40.677Z,36.73
2016-07-12T14:33:42.950Z,36.76
2016-07-12T14:34:40.541Z,36.76
2016-07-12T14:35:40.202Z,36.78
2016-07-12T14:36:41.326Z,36.72
2016-07-12T14:37:41.053Z,36.67
2016-07-12T14:38:41.085Z,36.65
2016-07-12T14:39:40.356Z,36.57
2016-07-12T14:40:40.513Z,36.62
2016-07-12T14:41:41.571Z,36.47
2016-07-12T14:42:40.514Z,36.53
2016-07-12T14:43:40.504Z,36.63
2016-07-12T14:44:40.367Z,36.62
2016-07-12T14:45:40.526Z,36.65
2016-07-12T14:46:40.306Z,36.66
2016-07-12T14:47:40.958Z,36.62
2016-07-12T14:48:41.526Z,36.76
2016-07-12T14:49:40.880Z,36.75
2016-07-12T14:50:40.702Z,36.73
2016-07-12T14:51:40.495Z,36.8
2016-07-12T14:52:40.938Z,36.7
2016-07-12T14:53:40.823Z,36.78
2016-07-12T14:54:41.075Z,36.84
2016-07-12T14:55:40.756Z,36.84
2016-07-12T14:56:41.234Z,36.81
2016-07-12T14:57:40.666Z,36.84
2016-07-12T14:58:40.551Z,36.92
2016-07-12T14:59:40.676Z,36.76
2016-07-12T15:00:40.648Z,36.81
2016-07-12T15:01:40.583Z,36.72
2016-07-12T15:02:40.806Z,36.75
2016-07-12T15:03:55.878Z,36.66
2016-07-12T15:04:41.452Z,36.67
2016-07-12T15:05:42.194Z,36.75
2016-07-12T15:06:41.371Z,36.57
2016-07-12T15:07:40.788Z,36.65
2016-07-12T15:08:41.715Z,36.65
2016-07-12T15:09:40.814Z,36.62
2016-07-12T15:10:40.802Z,36.63
2016-07-12T15:11:40.965Z,36.6
2016-07-12T15:12:40.802Z,36.63
2016-07-12T15:13:41.399Z,36.47
2016-07-12T15:14:40.881Z,36.45
2016-07-12T15:15:40.838Z,36.41
2016-07-12T15:16:40.898Z,36.47
2016-07-12T15:17:40.860Z,36.53
2016-07-12T15:18:40.834Z,36.5
2016-07-12T15:19:40.802Z,36.38
2016-07-12T15:20:41.350Z,36.41
2016-07-12T15:21:40.971Z,36.41
2016-07-12T15:22:40.972Z,36.25
2016-07-12T15:23:40.961Z,36.29
2016-07-12T15:24:40.997Z,36.25
2016-07-12T15:25:41.006Z,36.31
2016-07-12T15:26:41.025Z,36.35
2016-07-12T15:27:45.470Z,36.35
2016-07-12T15:28:40.899Z,36.22
2016-07-12T15:29:40.940Z,36
2016-07-12T15:30:41.022Z,36.14
2016-07-12T15:31:41.061Z,36.13
2016-07-12T15:32:41.810Z,36.05
2016-07-12T15:33:41.112Z,36.08
2016-07-12T15:34:41.113Z,36.05
2016-07-12T15:35:41.089Z,36.08
2016-07-12T15:36:41.144Z,35.9
2016-07-12T15:37:41.150Z,35.93
2016-07-12T15:38:41.144Z,35.9
2016-07-12T15:39:41.141Z,35.88
2016-07-12T15:40:41.171Z,35.88
2016-07-12T15:41:41.177Z,35.79
2016-07-12T15:42:41.170Z,35.79
2016-07-12T15:43:41.970Z,35.9
2016-07-12T15:44:41.991Z,35.74
2016-07-12T15:45:41.207Z,35.79
2016-07-12T15:46:41.237Z,35.82
2016-07-12T15:47:41.305Z,35.81
2016-07-12T15:48:41.275Z,35.87
2016-07-12T15:49:41.299Z,35.74
2016-07-12T15:50:41.308Z,35.75
2016-07-12T15:51:42.792Z,35.75
2016-07-12T15:52:41.695Z,35.76
2016-07-12T15:53:41.685Z,35.61
2016-07-12T15:54:41.796Z,35.72
2016-07-12T15:55:41.949Z,35.6
2016-07-12T15:56:41.707Z,35.66
2016-07-12T15:57:42.110Z,35.47
2016-07-12T15:58:43.497Z,35.53
2016-07-12T15:59:41.918Z,35.54
2016-07-12T16:00:42.042Z,35.54
2016-07-12T16:01:41.989Z,35.5
2016-07-12T16:02:45.385Z,35.42
2016-07-12T16:03:41.525Z,35.35
2016-07-12T16:04:42.443Z,35.31
2016-07-12T16:05:42.137Z,35.38
2016-07-12T16:06:42.470Z,35.35
2016-07-12T16:07:41.591Z,35.26
2016-07-12T16:08:41.530Z,35.27
2016-07-12T16:09:41.633Z,35.23
2016-07-12T16:10:43.659Z,35.2
2016-07-12T16:11:41.686Z,35.12
2016-07-12T16:12:41.631Z,35.12
2016-07-12T16:13:41.697Z,35.13
2016-07-12T16:14:41.612Z,35.15
2016-07-12T16:15:42.279Z,35.16
2016-07-12T16:16:41.596Z,35.07
2016-07-12T16:17:41.633Z,35.07
2016-07-12T16:18:41.798Z,35.07
2016-07-12T16:19:42.436Z,35.04
2016-07-12T16:20:42.383Z,35.04
2016-07-12T16:21:43.374Z,34.89
2016-07-12T16:22:41.691Z,34.88
2016-07-12T16:23:41.733Z,34.78
2016-07-12T16:24:42.639Z,34.82
2016-07-12T16:25:41.767Z,34.81
2016-07-12T16:26:41.963Z,34.81
2016-07-12T16:27:41.731Z,34.75
2016-07-12T16:28:41.794Z,34.76
2016-07-12T16:31:13.877Z,34.7
2016-07-12T18:12:23.054Z,31.23
2016-07-12T18:13:23.242Z,31.14
2016-07-12T18:14:24.571Z,31.15
2016-07-12T18:15:25.201Z,31.08
2016-07-12T18:16:23.787Z,31.1
2016-07-12T18:17:22.108Z,31.11
2016-07-12T18:18:22.091Z,30.95
2016-07-12T18:19:22.100Z,30.93
2016-07-12T18:20:22.112Z,31.04
2016-07-12T18:21:21.993Z,30.99
2016-07-12T18:22:22.140Z,30.83
2016-07-12T18:23:22.195Z,30.86
2016-07-12T18:24:23.498Z,30.85
2016-07-12T18:25:22.144Z,30.8
2016-07-12T18:26:22.513Z,30.92
2016-07-12T18:27:37.845Z,30.86
2016-07-12T18:28:22.478Z,30.74
2016-07-12T18:29:24.675Z,30.83
2016-07-12T18:30:22.939Z,30.83
2016-07-12T18:31:23.059Z,30.85
2016-07-12T18:32:22.963Z,30.76
2016-07-12T18:34:22.357Z,30.83
2016-07-12T18:35:22.215Z,30.85
2016-07-12T19:48:02.717Z,29.03
2016-07-12T19:49:03.347Z,28.97
2016-07-12T19:50:01.897Z,28.96
2016-07-12T19:51:01.907Z,28.93
2016-07-12T19:52:02.556Z,28.94
2016-07-12T19:53:01.907Z,28.94
2016-07-12T19:54:01.887Z,28.97
2016-07-12T19:55:02.108Z,28.94
2016-07-12T19:56:01.903Z,28.96
2016-07-12T19:57:01.905Z,28.82
2016-07-12T19:58:01.925Z,28.86
2016-07-12T19:59:02.578Z,28.84
2016-07-12T20:00:01.965Z,28.84
2016-07-12T20:01:02.663Z,28.86
2016-07-12T20:02:01.925Z,28.89
2016-07-12T20:03:01.959Z,28.82
2016-07-12T20:04:01.842Z,28.86
2016-07-12T20:05:01.988Z,28.93
2016-07-12T20:06:01.979Z,28.93
2016-07-12T20:07:01.961Z,28.83
2016-07-12T20:08:01.991Z,28.86
2016-07-12T20:09:02.009Z,28.83
2016-07-12T20:10:02.005Z,28.84
2016-07-12T20:11:01.886Z,28.89
2016-07-12T20:12:37.979Z,28.86
2016-07-12T20:13:37.987Z,28.87
2016-07-12T20:14:38.027Z,28.92
2016-07-12T20:15:38.022Z,28.96
2016-07-12T20:16:38.034Z,28.96
2016-07-12T20:17:38.046Z,28.92
2016-07-12T20:18:38.022Z,28.96
2016-07-12T20:19:38.032Z,28.97
2016-07-12T20:20:38.035Z,28.96
2016-07-12T20:21:38.791Z,28.92
2016-07-12T20:22:38.069Z,28.9
2016-07-12T20:23:38.810Z,28.94
2016-07-12T20:24:38.102Z,28.84
2016-07-12T20:25:38.067Z,28.89
2016-07-12T20:26:38.071Z,28.84
2016-07-12T20:27:38.101Z,28.92
2016-07-12T20:28:38.085Z,28.83
2016-07-12T20:29:38.885Z,28.93
2016-07-12T20:30:38.857Z,28.75
2016-07-12T20:31:38.110Z,28.7
2016-07-12T20:32:38.130Z,28.7
2016-07-12T20:33:38.135Z,28.7
2016-07-12T20:34:38.145Z,28.67
2016-07-12T20:35:38.135Z,28.7
2016-07-12T20:36:38.143Z,28.72
2016-07-12T20:37:38.163Z,28.71
2016-07-12T20:38:38.148Z,28.77
2016-07-12T20:39:38.132Z,28.72
2016-07-12T20:40:38.140Z,28.71
2016-07-12T20:41:38.194Z,28.72
2016-07-12T20:42:38.165Z,28.74
2016-07-12T20:43:38.083Z,28.74
2016-07-12T20:44:38.979Z,28.7
2016-07-12T20:45:38.233Z,28.72
2016-07-12T20:46:38.252Z,28.7
2016-07-12T20:47:38.217Z,28.68
2016-07-12T20:48:38.335Z,28.71
2016-07-12T20:49:38.957Z,28.75
2016-07-12T20:50:38.273Z,28.67
2016-07-12T20:51:38.234Z,28.6
2016-07-12T20:52:38.952Z,28.49
2016-07-12T20:53:38.184Z,28.45
2016-07-12T20:54:38.231Z,28.53
2016-07-12T20:55:38.246Z,28.47
2016-07-12T20:56:38.263Z,28.49
2016-07-12T20:57:38.265Z,28.46
2016-07-12T20:58:38.315Z,28.46
2016-07-12T20:59:38.276Z,28.41
2016-07-12T21:00:39.001Z,28.47
2016-07-12T21:01:38.287Z,28.49
2016-07-12T21:02:38.294Z,28.49
2016-07-12T21:04:24.594Z,28.56
2016-07-12T21:05:23.865Z,28.41
2016-07-12T21:06:23.896Z,28.49
2016-07-12T21:08:13.954Z,28.3
2016-07-12T21:09:13.966Z,28.34
2016-07-12T21:10:13.992Z,28.27
2016-07-12T21:11:14.000Z,28.3
2016-07-12T21:12:14.009Z,28.3
2016-07-12T21:13:14.017Z,28.33
2016-07-12T21:14:13.991Z,28.23
2016-07-12T21:15:14.003Z,28.18
2016-07-12T21:16:14.009Z,28.18
2016-07-12T21:17:14.016Z,28.22
2016-07-12T21:18:14.049Z,28.25
2016-07-12T21:19:14.059Z,28.23
2016-07-12T21:20:14.080Z,28.25
2016-07-12T21:21:14.043Z,28.23
2016-07-12T21:22:14.068Z,28.27
2016-07-12T21:23:14.086Z,28.28
2016-07-12T21:24:14.074Z,28.25
2016-07-12T21:25:14.074Z,28.25
2016-07-12T21:26:14.109Z,28.25
2016-07-12T21:27:14.844Z,28.27
2016-07-12T21:28:14.032Z,28.16
2016-07-12T21:29:14.139Z,28.18
2016-07-12T21:30:14.140Z,28.06
2016-07-12T21:31:14.128Z,28
2016-07-12T21:32:14.138Z,28.08
2016-07-12T21:33:14.163Z,28.06
2016-07-12T21:34:14.891Z,28.09
2016-07-12T21:35:14.355Z,28.09
2016-07-12T21:36:14.142Z,28.08
2016-07-12T21:37:14.915Z,28.15
2016-07-12T21:38:14.229Z,28.18
2016-07-12T21:39:14.930Z,28.19
2016-07-12T21:40:14.245Z,28.18
2016-07-12T21:41:15.008Z,28.19
2016-07-12T21:42:14.964Z,28.25
2016-07-12T21:43:14.229Z,28.18
2016-07-12T21:44:14.207Z,28.1
2016-07-12T21:45:14.236Z,27.97
2016-07-12T21:46:20.433Z,28.08
2016-07-12T21:47:15.009Z,28.09
2016-07-12T21:48:14.199Z,28.09
2016-07-12T21:49:14.411Z,28.18
2016-07-12T21:50:14.995Z,28.18
2016-07-12T21:51:14.709Z,28.04
2016-07-12T21:52:15.248Z,28.1
2016-07-12T21:54:14.451Z,28.01
2016-07-12T21:55:14.343Z,28.01
2016-07-12T21:56:14.325Z,27.86
2016-07-12T21:57:14.333Z,27.95
2016-07-12T21:58:14.366Z,28
2016-07-12T21:59:14.367Z,28.01
2016-07-12T22:00:14.291Z,28.06
2016-07-12T22:01:14.369Z,28.08
2016-07-12T22:02:15.110Z,28.06
2016-07-12T22:03:14.387Z,28.04
2016-07-12T22:04:14.432Z,28.13
2016-07-12T22:05:14.370Z,27.98
2016-07-12T22:06:14.403Z,27.9
2016-07-12T22:07:14.434Z,27.81
2016-07-12T22:08:14.425Z,27.78
2016-07-12T22:10:15.214Z,27.79
2016-07-12T22:12:14.494Z,27.81
2016-07-12T22:13:14.484Z,27.81
2016-07-12T22:14:15.436Z,27.88
2016-07-12T22:15:14.493Z,27.83
2016-07-12T22:16:14.487Z,27.86
2016-07-12T22:17:15.292Z,27.88
2016-07-12T22:18:14.524Z,27.68
2016-07-12T22:19:14.489Z,27.5
2016-07-12T22:20:14.525Z,27.52
2016-07-12T22:21:14.551Z,27.52
2016-07-12T22:22:14.560Z,27.47
2016-07-12T22:23:14.541Z,27.52
2016-07-12T22:24:14.553Z,27.48
2016-07-12T22:25:14.566Z,27.45
2016-07-12T22:26:15.099Z,27.6
2016-07-12T22:27:14.556Z,27.53
2016-07-12T22:28:14.601Z,27.52
2016-07-12T22:29:18.316Z,27.63
2016-07-12T22:30:14.599Z,27.63
2016-07-12T22:31:14.656Z,27.6
2016-07-12T22:32:14.690Z,27.61
2016-07-12T22:33:14.764Z,27.64
2016-07-12T22:34:14.559Z,27.61
2016-07-12T22:35:15.349Z,27.52
2016-07-12T22:36:15.210Z,27.5
2016-07-12T22:37:15.055Z,27.53
2016-07-12T22:38:14.663Z,27.52
2016-07-12T22:39:14.726Z,27.52
2016-07-12T22:40:14.702Z,27.48
2016-07-12T22:41:14.703Z,27.45
2016-07-12T22:42:15.121Z,27.33
2016-07-12T22:43:14.671Z,27.35
2016-07-12T22:44:14.848Z,27.29
2016-07-12T22:45:14.613Z,27.26
2016-07-12T22:46:14.750Z,27.35
2016-07-12T22:47:15.639Z,27.29
2016-07-12T22:48:14.743Z,27.37
2016-07-12T22:49:14.738Z,27.33
2016-07-12T22:50:29.463Z,27.3
2016-07-12T22:51:14.785Z,27.35
2016-07-12T22:52:15.715Z,27.35
2016-07-12T22:53:14.809Z,27.35
2016-07-12T22:54:14.840Z,27.35
2016-07-12T22:55:14.785Z,27.33
2016-07-12T22:56:29.509Z,27.4
2016-07-12T22:57:14.825Z,27.26
2016-07-12T22:58:14.818Z,27.22
2016-07-12T22:59:14.820Z,27.28
2016-07-12T23:00:15.565Z,27.28
2016-07-12T23:01:14.782Z,27.29
2016-07-12T23:02:14.829Z,27.26
2016-07-12T23:03:14.879Z,27.28
2016-07-12T23:04:14.890Z,27.25
2016-07-12T23:05:14.889Z,27.26
2016-07-12T23:06:15.638Z,27.25
2016-07-12T23:07:14.886Z,27.25
2016-07-12T23:08:15.992Z,27.3
2016-07-12T23:09:18.023Z,27.29
2016-07-12T23:10:18.240Z,27.28
2016-07-12T23:11:19.547Z,27.29
2016-07-12T23:12:14.897Z,27.22
2016-07-12T23:13:15.089Z,27.23
2016-07-12T23:14:14.980Z,27.2
2016-07-12T23:15:14.960Z,27.23
2016-07-12T23:16:14.971Z,27.25
2016-07-12T23:17:15.149Z,27.2
2016-07-12T23:18:16.186Z,27.1
2016-07-12T23:19:14.996Z,27.2
2016-07-12T23:20:14.996Z,27.25
2016-07-12T23:21:15.022Z,27.23
2016-07-12T23:22:15.282Z,27.23
2016-07-12T23:23:15.046Z,27.28
2016-07-12T23:24:15.034Z,27.28
2016-07-12T23:25:15.030Z,27.25
2016-07-12T23:26:15.047Z,27.18
2016-07-12T23:27:15.051Z,27.11
2016-07-12T23:28:15.063Z,27.11
2016-07-12T23:29:15.738Z,27.18
2016-07-12T23:30:15.120Z,27.13
2016-07-12T23:31:15.136Z,27.16
2016-07-12T23:32:15.074Z,27.15
2016-07-12T23:33:29.769Z,27.25
2016-07-12T23:34:15.078Z,27.28
2016-07-12T23:35:15.118Z,27.11
2016-07-12T23:37:21.037Z,26.82
2016-07-12T23:38:19.381Z,26.67
2016-07-12T23:39:19.899Z,26.56
2016-07-12T23:40:20.048Z,26.56
2016-07-12T23:41:15.157Z,26.41
2016-07-12T23:42:15.168Z,26.59
2016-07-12T23:43:15.797Z,26.59
2016-07-12T23:44:15.255Z,26.64
2016-07-12T23:45:15.840Z,26.7
2016-07-12T23:46:19.604Z,26.68
2016-07-12T23:47:15.178Z,26.68
2016-07-12T23:48:31.300Z,26.78
2016-07-12T23:49:15.189Z,26.83
2016-07-12T23:50:15.222Z,26.83
2016-07-12T23:51:15.922Z,27
2016-07-12T23:52:15.280Z,26.93
2016-07-12T23:53:15.327Z,27.03
2016-07-12T23:54:15.113Z,26.97
2016-07-12T23:55:15.260Z,27.13
2016-07-12T23:56:16.172Z,27.16
2016-07-12T23:57:15.299Z,27.18
2016-07-12T23:58:15.304Z,27.11
2016-07-12T23:59:15.265Z,27.25
